sensor_id;sensor_type;location;lat;lon;timestamp;P1;durP1;ratioP1;P2;durP2;ratioP2
29788;SDS011;64899;42.660;23.268;2024-01-27T00:00:04;8.68;;;3.28;;
29788;SDS011;64899;42.660;23.268;2024-01-27T00:02:30;9.52;;;3.90;;
29788;SDS011;64899;42.660;23.268;2024-01-27T00:04:55;10.25;;;3.20;;
29788;SDS011;64899;42.660;23.268;2024-01-27T00:07:21;10.27;;;3.10;;
29788;SDS011;64899;42.660;23.268;2024-01-27T00:09:47;7.60;;;3.20;;
29788;SDS011;64899;42.660;23.268;2024-01-27T00:12:12;5.07;;;2.97;;
29788;SDS011;64899;42.660;23.268;2024-01-27T00:14:38;9.00;;;2.92;;
29788;SDS011;64899;42.660;23.268;2024-01-27T00:17:03;8.65;;;3.03;;
29788;SDS011;64899;42.660;23.268;2024-01-27T00:19:29;7.82;;;3.42;;
29788;SDS011;64899;42.660;23.268;2024-01-27T00:21:54;9.23;;;3.55;;
29788;SDS011;64899;42.660;23.268;2024-01-27T00:24:20;11.32;;;3.97;;
29788;SDS011;64899;42.660;23.268;2024-01-27T00:26:45;5.05;;;3.00;;
29788;SDS011;64899;42.660;23.268;2024-01-27T00:29:10;10.43;;;3.70;;
29788;SDS011;64899;42.660;23.268;2024-01-27T00:31:36;8.73;;;3.42;;
29788;SDS011;64899;42.660;23.268;2024-01-27T00:34:01;9.75;;;2.92;;
29788;SDS011;64899;42.660;23.268;2024-01-27T00:36:27;6.45;;;2.80;;
29788;SDS011;64899;42.660;23.268;2024-01-27T00:38:52;10.68;;;3.25;;
29788;SDS011;64899;42.660;23.268;2024-01-27T00:41:18;9.10;;;3.22;;
29788;SDS011;64899;42.660;23.268;2024-01-27T00:43:43;8.88;;;3.15;;
29788;SDS011;64899;42.660;23.268;2024-01-27T00:46:09;9.43;;;3.65;;
29788;SDS011;64899;42.660;23.268;2024-01-27T00:48:34;6.13;;;3.13;;
29788;SDS011;64899;42.660;23.268;2024-01-27T00:51:00;7.00;;;3.13;;
29788;SDS011;64899;42.660;23.268;2024-01-27T00:53:25;6.15;;;3.28;;
29788;SDS011;64899;42.660;23.268;2024-01-27T00:55:51;9.05;;;2.58;;
29788;SDS011;64899;42.660;23.268;2024-01-27T00:58:16;7.15;;;3.00;;
29788;SDS011;64899;42.660;23.268;2024-01-27T01:00:42;8.63;;;3.15;;
29788;SDS011;64899;42.660;23.268;2024-01-27T01:03:07;9.93;;;3.83;;
29788;SDS011;64899;42.660;23.268;2024-01-27T01:05:32;5.57;;;3.00;;
29788;SDS011;64899;42.660;23.268;2024-01-27T01:07:58;7.28;;;2.92;;
29788;SDS011;64899;42.660;23.268;2024-01-27T01:10:23;7.75;;;3.50;;
29788;SDS011;64899;42.660;23.268;2024-01-27T01:12:49;9.23;;;3.63;;
29788;SDS011;64899;42.660;23.268;2024-01-27T01:15:14;12.77;;;3.35;;
29788;SDS011;64899;42.660;23.268;2024-01-27T01:17:40;9.68;;;3.25;;
29788;SDS011;64899;42.660;23.268;2024-01-27T01:20:06;13.38;;;4.43;;
29788;SDS011;64899;42.660;23.268;2024-01-27T01:22:32;6.10;;;3.33;;
29788;SDS011;64899;42.660;23.268;2024-01-27T01:24:57;8.20;;;2.88;;
29788;SDS011;64899;42.660;23.268;2024-01-27T01:27:23;8.48;;;2.65;;
29788;SDS011;64899;42.660;23.268;2024-01-27T01:29:48;7.00;;;3.10;;
29788;SDS011;64899;42.660;23.268;2024-01-27T01:32:14;8.55;;;3.17;;
29788;SDS011;64899;42.660;23.268;2024-01-27T01:34:40;4.20;;;2.33;;
29788;SDS011;64899;42.660;23.268;2024-01-27T01:37:05;6.32;;;2.72;;
29788;SDS011;64899;42.660;23.268;2024-01-27T01:39:31;8.80;;;2.63;;
29788;SDS011;64899;42.660;23.268;2024-01-27T01:41:56;8.05;;;3.70;;
29788;SDS011;64899;42.660;23.268;2024-01-27T01:44:22;7.13;;;2.72;;
29788;SDS011;64899;42.660;23.268;2024-01-27T01:46:47;6.43;;;2.80;;
29788;SDS011;64899;42.660;23.268;2024-01-27T01:49:13;7.65;;;2.30;;
29788;SDS011;64899;42.660;23.268;2024-01-27T01:51:38;5.28;;;2.65;;
29788;SDS011;64899;42.660;23.268;2024-01-27T01:54:04;5.75;;;2.88;;
29788;SDS011;64899;42.660;23.268;2024-01-27T01:56:30;7.82;;;3.10;;
29788;SDS011;64899;42.660;23.268;2024-01-27T01:58:55;6.05;;;2.47;;
29788;SDS011;64899;42.660;23.268;2024-01-27T02:01:21;5.78;;;2.33;;
29788;SDS011;64899;42.660;23.268;2024-01-27T02:03:53;6.53;;;2.60;;
29788;SDS011;64899;42.660;23.268;2024-01-27T02:06:18;4.22;;;2.22;;
29788;SDS011;64899;42.660;23.268;2024-01-27T02:08:44;7.57;;;2.67;;
29788;SDS011;64899;42.660;23.268;2024-01-27T02:11:09;5.63;;;2.22;;
29788;SDS011;64899;42.660;23.268;2024-01-27T02:13:34;4.18;;;2.28;;
29788;SDS011;64899;42.660;23.268;2024-01-27T02:16:00;6.45;;;2.53;;
29788;SDS011;64899;42.660;23.268;2024-01-27T02:18:25;7.45;;;2.17;;
29788;SDS011;64899;42.660;23.268;2024-01-27T02:20:50;5.68;;;3.08;;
29788;SDS011;64899;42.660;23.268;2024-01-27T02:23:16;6.03;;;2.60;;
29788;SDS011;64899;42.660;23.268;2024-01-27T02:25:41;10.02;;;2.50;;
29788;SDS011;64899;42.660;23.268;2024-01-27T02:28:07;8.55;;;2.80;;
29788;SDS011;64899;42.660;23.268;2024-01-27T02:30:32;6.38;;;2.90;;
29788;SDS011;64899;42.660;23.268;2024-01-27T02:32:58;5.72;;;2.85;;
29788;SDS011;64899;42.660;23.268;2024-01-27T02:35:23;7.13;;;2.72;;
29788;SDS011;64899;42.660;23.268;2024-01-27T02:37:49;9.18;;;2.28;;
29788;SDS011;64899;42.660;23.268;2024-01-27T02:40:15;2.97;;;2.28;;
29788;SDS011;64899;42.660;23.268;2024-01-27T02:42:40;10.00;;;2.70;;
29788;SDS011;64899;42.660;23.268;2024-01-27T02:45:07;4.22;;;2.30;;
29788;SDS011;64899;42.660;23.268;2024-01-27T02:47:33;6.85;;;1.92;;
29788;SDS011;64899;42.660;23.268;2024-01-27T02:49:58;7.85;;;2.53;;
29788;SDS011;64899;42.660;23.268;2024-01-27T02:52:24;4.45;;;2.10;;
29788;SDS011;64899;42.660;23.268;2024-01-27T02:54:49;4.32;;;2.03;;
29788;SDS011;64899;42.660;23.268;2024-01-27T02:57:15;3.30;;;1.90;;
29788;SDS011;64899;42.660;23.268;2024-01-27T02:59:44;4.55;;;2.03;;
29788;SDS011;64899;42.660;23.268;2024-01-27T03:02:10;4.63;;;2.90;;
29788;SDS011;64899;42.660;23.268;2024-01-27T03:04:35;8.15;;;2.35;;
29788;SDS011;64899;42.660;23.268;2024-01-27T03:07:01;6.65;;;2.17;;
29788;SDS011;64899;42.660;23.268;2024-01-27T03:09:26;6.57;;;2.20;;
29788;SDS011;64899;42.660;23.268;2024-01-27T03:11:52;3.95;;;2.20;;
29788;SDS011;64899;42.660;23.268;2024-01-27T03:14:17;5.68;;;1.75;;
29788;SDS011;64899;42.660;23.268;2024-01-27T03:16:43;7.32;;;2.50;;
29788;SDS011;64899;42.660;23.268;2024-01-27T03:19:09;4.97;;;2.10;;
29788;SDS011;64899;42.660;23.268;2024-01-27T03:21:35;7.63;;;3.58;;
29788;SDS011;64899;42.660;23.268;2024-01-27T03:24:01;6.15;;;2.20;;
29788;SDS011;64899;42.660;23.268;2024-01-27T03:26:26;5.72;;;2.30;;
29788;SDS011;64899;42.660;23.268;2024-01-27T03:28:52;4.63;;;1.92;;
29788;SDS011;64899;42.660;23.268;2024-01-27T03:31:17;6.10;;;2.13;;
29788;SDS011;64899;42.660;23.268;2024-01-27T03:33:42;6.13;;;2.58;;
29788;SDS011;64899;42.660;23.268;2024-01-27T03:36:12;4.63;;;2.65;;
29788;SDS011;64899;42.660;23.268;2024-01-27T03:38:38;3.85;;;2.30;;
29788;SDS011;64899;42.660;23.268;2024-01-27T03:41:04;4.82;;;2.30;;
29788;SDS011;64899;42.660;23.268;2024-01-27T03:43:30;5.57;;;1.83;;
29788;SDS011;64899;42.660;23.268;2024-01-27T03:45:56;9.10;;;2.30;;
29788;SDS011;64899;42.660;23.268;2024-01-27T03:48:22;4.07;;;1.90;;
29788;SDS011;64899;42.660;23.268;2024-01-27T03:50:47;4.35;;;2.20;;
29788;SDS011;64899;42.660;23.268;2024-01-27T03:53:13;6.88;;;2.55;;
29788;SDS011;64899;42.660;23.268;2024-01-27T03:55:38;8.35;;;2.95;;
29788;SDS011;64899;42.660;23.268;2024-01-27T03:58:04;5.53;;;2.60;;
29788;SDS011;64899;42.660;23.268;2024-01-27T04:00:29;3.22;;;2.13;;
29788;SDS011;64899;42.660;23.268;2024-01-27T04:02:58;5.43;;;2.85;;
29788;SDS011;64899;42.660;23.268;2024-01-27T04:05:27;9.48;;;2.85;;
29788;SDS011;64899;42.660;23.268;2024-01-27T04:07:54;5.15;;;2.85;;
29788;SDS011;64899;42.660;23.268;2024-01-27T04:10:20;5.45;;;3.05;;
29788;SDS011;64899;42.660;23.268;2024-01-27T04:12:45;9.48;;;3.58;;
29788;SDS011;64899;42.660;23.268;2024-01-27T04:15:11;6.57;;;3.25;;
29788;SDS011;64899;42.660;23.268;2024-01-27T04:17:36;6.25;;;2.75;;
29788;SDS011;64899;42.660;23.268;2024-01-27T04:20:02;8.35;;;2.28;;
29788;SDS011;64899;42.660;23.268;2024-01-27T04:22:28;6.30;;;2.60;;
29788;SDS011;64899;42.660;23.268;2024-01-27T04:24:53;5.20;;;2.95;;
29788;SDS011;64899;42.660;23.268;2024-01-27T04:27:19;6.35;;;2.95;;
29788;SDS011;64899;42.660;23.268;2024-01-27T04:29:44;6.72;;;2.50;;
29788;SDS011;64899;42.660;23.268;2024-01-27T04:32:09;5.70;;;2.78;;
29788;SDS011;64899;42.660;23.268;2024-01-27T04:34:35;10.18;;;3.00;;
29788;SDS011;64899;42.660;23.268;2024-01-27T04:37:01;6.72;;;2.83;;
29788;SDS011;64899;42.660;23.268;2024-01-27T04:39:26;8.07;;;3.05;;
29788;SDS011;64899;42.660;23.268;2024-01-27T04:41:51;6.97;;;3.13;;
29788;SDS011;64899;42.660;23.268;2024-01-27T04:44:17;4.95;;;3.05;;
29788;SDS011;64899;42.660;23.268;2024-01-27T04:46:45;6.93;;;2.83;;
29788;SDS011;64899;42.660;23.268;2024-01-27T04:49:10;7.30;;;3.08;;
29788;SDS011;64899;42.660;23.268;2024-01-27T04:51:36;9.10;;;3.00;;
29788;SDS011;64899;42.660;23.268;2024-01-27T04:54:01;6.93;;;3.50;;
29788;SDS011;64899;42.660;23.268;2024-01-27T04:56:27;7.13;;;3.20;;
29788;SDS011;64899;42.660;23.268;2024-01-27T04:58:52;4.65;;;2.90;;
29788;SDS011;64899;42.660;23.268;2024-01-27T05:01:18;6.68;;;3.17;;
29788;SDS011;64899;42.660;23.268;2024-01-27T05:03:43;7.38;;;2.58;;
29788;SDS011;64899;42.660;23.268;2024-01-27T05:06:09;4.38;;;2.95;;
29788;SDS011;64899;42.660;23.268;2024-01-27T05:08:35;8.35;;;3.05;;
29788;SDS011;64899;42.660;23.268;2024-01-27T05:11:00;6.20;;;2.97;;
29788;SDS011;64899;42.660;23.268;2024-01-27T05:13:26;6.70;;;3.22;;
29788;SDS011;64899;42.660;23.268;2024-01-27T05:15:51;6.10;;;3.17;;
29788;SDS011;64899;42.660;23.268;2024-01-27T05:18:17;6.15;;;3.00;;
29788;SDS011;64899;42.660;23.268;2024-01-27T05:20:42;12.73;;;3.50;;
29788;SDS011;64899;42.660;23.268;2024-01-27T05:23:08;7.00;;;3.20;;
29788;SDS011;64899;42.660;23.268;2024-01-27T05:25:33;5.18;;;3.35;;
29788;SDS011;64899;42.660;23.268;2024-01-27T05:27:59;6.53;;;3.13;;
29788;SDS011;64899;42.660;23.268;2024-01-27T05:30:24;5.93;;;2.65;;
29788;SDS011;64899;42.660;23.268;2024-01-27T05:32:49;6.35;;;2.65;;
29788;SDS011;64899;42.660;23.268;2024-01-27T05:35:15;11.38;;;3.10;;
29788;SDS011;64899;42.660;23.268;2024-01-27T05:37:40;5.10;;;2.83;;
29788;SDS011;64899;42.660;23.268;2024-01-27T05:40:06;9.07;;;3.53;;
29788;SDS011;64899;42.660;23.268;2024-01-27T05:42:32;4.57;;;2.40;;
29788;SDS011;64899;42.660;23.268;2024-01-27T05:44:58;5.20;;;2.53;;
29788;SDS011;64899;42.660;23.268;2024-01-27T05:47:23;5.20;;;2.50;;
29788;SDS011;64899;42.660;23.268;2024-01-27T05:49:48;5.13;;;2.20;;
29788;SDS011;64899;42.660;23.268;2024-01-27T05:52:14;5.47;;;3.00;;
29788;SDS011;64899;42.660;23.268;2024-01-27T05:54:40;6.53;;;2.92;;
29788;SDS011;64899;42.660;23.268;2024-01-27T05:57:06;3.92;;;2.65;;
29788;SDS011;64899;42.660;23.268;2024-01-27T05:59:32;4.75;;;2.20;;
29788;SDS011;64899;42.660;23.268;2024-01-27T06:01:57;2.95;;;2.10;;
29788;SDS011;64899;42.660;23.268;2024-01-27T06:04:23;3.72;;;1.88;;
29788;SDS011;64899;42.660;23.268;2024-01-27T06:06:48;3.40;;;1.80;;
29788;SDS011;64899;42.660;23.268;2024-01-27T06:09:14;6.65;;;1.90;;
29788;SDS011;64899;42.660;23.268;2024-01-27T06:11:39;6.15;;;2.67;;
29788;SDS011;64899;42.660;23.268;2024-01-27T06:14:05;5.45;;;2.42;;
29788;SDS011;64899;42.660;23.268;2024-01-27T06:16:31;3.88;;;2.15;;
29788;SDS011;64899;42.660;23.268;2024-01-27T06:18:57;4.22;;;2.40;;
29788;SDS011;64899;42.660;23.268;2024-01-27T06:21:23;3.53;;;1.98;;
29788;SDS011;64899;42.660;23.268;2024-01-27T06:23:48;4.05;;;2.03;;
29788;SDS011;64899;42.660;23.268;2024-01-27T06:26:14;2.33;;;1.73;;
29788;SDS011;64899;42.660;23.268;2024-01-27T06:28:40;5.13;;;1.75;;
29788;SDS011;64899;42.660;23.268;2024-01-27T06:31:05;3.28;;;1.67;;
29788;SDS011;64899;42.660;23.268;2024-01-27T06:33:31;2.90;;;1.90;;
29788;SDS011;64899;42.660;23.268;2024-01-27T06:35:57;5.10;;;2.40;;
29788;SDS011;64899;42.660;23.268;2024-01-27T06:38:22;5.13;;;1.90;;
29788;SDS011;64899;42.660;23.268;2024-01-27T06:40:48;2.60;;;2.00;;
29788;SDS011;64899;42.660;23.268;2024-01-27T06:43:13;5.40;;;2.65;;
29788;SDS011;64899;42.660;23.268;2024-01-27T06:45:39;2.42;;;1.60;;
29788;SDS011;64899;42.660;23.268;2024-01-27T06:48:05;3.70;;;2.08;;
29788;SDS011;64899;42.660;23.268;2024-01-27T06:50:31;2.03;;;1.83;;
29788;SDS011;64899;42.660;23.268;2024-01-27T06:52:57;4.05;;;2.17;;
29788;SDS011;64899;42.660;23.268;2024-01-27T06:55:22;4.53;;;2.40;;
29788;SDS011;64899;42.660;23.268;2024-01-27T06:57:48;3.05;;;2.17;;
29788;SDS011;64899;42.660;23.268;2024-01-27T07:00:13;3.72;;;2.15;;
29788;SDS011;64899;42.660;23.268;2024-01-27T07:02:40;5.13;;;2.10;;
29788;SDS011;64899;42.660;23.268;2024-01-27T07:05:09;5.07;;;2.00;;
29788;SDS011;64899;42.660;23.268;2024-01-27T07:07:34;3.22;;;2.28;;
29788;SDS011;64899;42.660;23.268;2024-01-27T07:10:00;2.88;;;1.85;;
29788;SDS011;64899;42.660;23.268;2024-01-27T07:12:27;4.70;;;2.13;;
29788;SDS011;64899;42.660;23.268;2024-01-27T07:14:52;3.13;;;2.00;;
29788;SDS011;64899;42.660;23.268;2024-01-27T07:17:20;4.25;;;2.05;;
29788;SDS011;64899;42.660;23.268;2024-01-27T07:19:45;4.05;;;2.45;;
29788;SDS011;64899;42.660;23.268;2024-01-27T07:22:10;3.13;;;2.10;;
29788;SDS011;64899;42.660;23.268;2024-01-27T07:24:36;3.70;;;1.90;;
29788;SDS011;64899;42.660;23.268;2024-01-27T07:27:02;2.28;;;1.75;;
29788;SDS011;64899;42.660;23.268;2024-01-27T07:29:28;2.00;;;1.73;;
29788;SDS011;64899;42.660;23.268;2024-01-27T07:31:54;4.10;;;2.03;;
29788;SDS011;64899;42.660;23.268;2024-01-27T07:34:19;3.10;;;2.15;;
29788;SDS011;64899;42.660;23.268;2024-01-27T07:36:45;4.47;;;2.45;;
29788;SDS011;64899;42.660;23.268;2024-01-27T07:39:29;2.60;;;1.60;;
29788;SDS011;64899;42.660;23.268;2024-01-27T07:41:54;3.90;;;2.08;;
29788;SDS011;64899;42.660;23.268;2024-01-27T07:44:19;4.38;;;2.30;;
29788;SDS011;64899;42.660;23.268;2024-01-27T07:46:45;5.00;;;2.75;;
29788;SDS011;64899;42.660;23.268;2024-01-27T07:49:10;2.65;;;2.20;;
29788;SDS011;64899;42.660;23.268;2024-01-27T07:51:38;4.53;;;2.70;;
29788;SDS011;64899;42.660;23.268;2024-01-27T07:54:03;2.30;;;2.00;;
29788;SDS011;64899;42.660;23.268;2024-01-27T07:56:28;4.93;;;2.35;;
29788;SDS011;64899;42.660;23.268;2024-01-27T07:58:54;3.63;;;2.38;;
29788;SDS011;64899;42.660;23.268;2024-01-27T08:01:19;4.93;;;2.40;;
29788;SDS011;64899;42.660;23.268;2024-01-27T08:03:45;7.47;;;2.90;;
29788;SDS011;64899;42.660;23.268;2024-01-27T08:06:14;2.88;;;2.28;;
29788;SDS011;64899;42.660;23.268;2024-01-27T08:08:42;4.57;;;2.90;;
29788;SDS011;64899;42.660;23.268;2024-01-27T08:11:08;7.07;;;3.15;;
29788;SDS011;64899;42.660;23.268;2024-01-27T08:13:34;5.88;;;2.78;;
29788;SDS011;64899;42.660;23.268;2024-01-27T08:15:59;5.00;;;2.75;;
29788;SDS011;64899;42.660;23.268;2024-01-27T08:18:24;5.00;;;2.72;;
29788;SDS011;64899;42.660;23.268;2024-01-27T08:20:50;4.30;;;2.58;;
29788;SDS011;64899;42.660;23.268;2024-01-27T08:23:15;5.95;;;2.28;;
29788;SDS011;64899;42.660;23.268;2024-01-27T08:25:42;3.67;;;2.22;;
29788;SDS011;64899;42.660;23.268;2024-01-27T08:28:09;4.22;;;2.50;;
29788;SDS011;64899;42.660;23.268;2024-01-27T08:30:35;2.40;;;2.00;;
29788;SDS011;64899;42.660;23.268;2024-01-27T08:33:00;6.10;;;2.30;;
29788;SDS011;64899;42.660;23.268;2024-01-27T08:35:26;3.33;;;2.40;;
29788;SDS011;64899;42.660;23.268;2024-01-27T08:37:51;3.75;;;2.30;;
29788;SDS011;64899;42.660;23.268;2024-01-27T08:40:16;3.88;;;2.22;;
29788;SDS011;64899;42.660;23.268;2024-01-27T08:42:42;3.33;;;2.05;;
29788;SDS011;64899;42.660;23.268;2024-01-27T08:45:07;3.75;;;2.20;;
29788;SDS011;64899;42.660;23.268;2024-01-27T08:47:33;3.90;;;2.47;;
29788;SDS011;64899;42.660;23.268;2024-01-27T08:49:58;4.88;;;2.45;;
29788;SDS011;64899;42.660;23.268;2024-01-27T08:52:24;5.43;;;3.38;;
29788;SDS011;64899;42.660;23.268;2024-01-27T08:54:49;4.18;;;2.65;;
29788;SDS011;64899;42.660;23.268;2024-01-27T08:57:14;3.08;;;2.35;;
29788;SDS011;64899;42.660;23.268;2024-01-27T08:59:40;3.83;;;2.40;;
29788;SDS011;64899;42.660;23.268;2024-01-27T09:02:05;2.92;;;2.28;;
29788;SDS011;64899;42.660;23.268;2024-01-27T09:04:31;3.33;;;2.13;;
29788;SDS011;64899;42.660;23.268;2024-01-27T09:06:56;4.53;;;2.78;;
29788;SDS011;64899;42.660;23.268;2024-01-27T09:09:22;3.25;;;2.33;;
29788;SDS011;64899;42.660;23.268;2024-01-27T09:11:47;6.40;;;2.85;;
29788;SDS011;64899;42.660;23.268;2024-01-27T09:14:13;4.25;;;2.60;;
29788;SDS011;64899;42.660;23.268;2024-01-27T09:16:39;4.25;;;2.40;;
29788;SDS011;64899;42.660;23.268;2024-01-27T09:19:05;3.42;;;2.15;;
29788;SDS011;64899;42.660;23.268;2024-01-27T09:21:30;4.00;;;2.50;;
29788;SDS011;64899;42.660;23.268;2024-01-27T09:23:57;4.20;;;2.40;;
29788;SDS011;64899;42.660;23.268;2024-01-27T09:26:23;3.33;;;2.13;;
29788;SDS011;64899;42.660;23.268;2024-01-27T09:28:48;7.80;;;2.75;;
29788;SDS011;64899;42.660;23.268;2024-01-27T09:31:22;3.38;;;2.40;;
29788;SDS011;64899;42.660;23.268;2024-01-27T09:33:49;3.50;;;2.28;;
29788;SDS011;64899;42.660;23.268;2024-01-27T09:36:16;2.58;;;2.30;;
29788;SDS011;64899;42.660;23.268;2024-01-27T09:38:42;4.65;;;2.25;;
29788;SDS011;64899;42.660;23.268;2024-01-27T09:41:07;7.22;;;3.40;;
29788;SDS011;64899;42.660;23.268;2024-01-27T09:43:34;5.30;;;2.63;;
29788;SDS011;64899;42.660;23.268;2024-01-27T09:46:00;3.80;;;2.38;;
29788;SDS011;64899;42.660;23.268;2024-01-27T09:48:27;4.28;;;2.30;;
29788;SDS011;64899;42.660;23.268;2024-01-27T09:50:53;4.85;;;2.88;;
29788;SDS011;64899;42.660;23.268;2024-01-27T09:53:20;3.30;;;2.55;;
29788;SDS011;64899;42.660;23.268;2024-01-27T09:55:45;2.65;;;1.90;;
29788;SDS011;64899;42.660;23.268;2024-01-27T09:58:10;3.55;;;2.05;;
29788;SDS011;64899;42.660;23.268;2024-01-27T10:00:36;3.05;;;2.10;;
29788;SDS011;64899;42.660;23.268;2024-01-27T10:03:02;3.03;;;2.40;;
29788;SDS011;64899;42.660;23.268;2024-01-27T10:05:28;3.60;;;2.30;;
29788;SDS011;64899;42.660;23.268;2024-01-27T10:07:54;4.93;;;2.40;;
29788;SDS011;64899;42.660;23.268;2024-01-27T10:10:19;2.22;;;2.00;;
29788;SDS011;64899;42.660;23.268;2024-01-27T10:12:44;2.70;;;2.28;;
29788;SDS011;64899;42.660;23.268;2024-01-27T10:15:18;2.95;;;2.42;;
29788;SDS011;64899;42.660;23.268;2024-01-27T10:17:45;2.55;;;2.15;;
29788;SDS011;64899;42.660;23.268;2024-01-27T10:20:11;5.90;;;2.70;;
29788;SDS011;64899;42.660;23.268;2024-01-27T10:22:39;3.00;;;2.13;;
29788;SDS011;64899;42.660;23.268;2024-01-27T10:25:08;3.17;;;1.75;;
29788;SDS011;64899;42.660;23.268;2024-01-27T10:27:34;2.47;;;2.08;;
29788;SDS011;64899;42.660;23.268;2024-01-27T10:30:00;2.50;;;2.10;;
29788;SDS011;64899;42.660;23.268;2024-01-27T10:32:25;2.85;;;2.55;;
29788;SDS011;64899;42.660;23.268;2024-01-27T10:35:04;3.55;;;2.25;;
29788;SDS011;64899;42.660;23.268;2024-01-27T10:37:30;4.90;;;2.85;;
29788;SDS011;64899;42.660;23.268;2024-01-27T10:40:02;3.03;;;2.20;;
29788;SDS011;64899;42.660;23.268;2024-01-27T10:42:37;2.33;;;1.83;;
29788;SDS011;64899;42.660;23.268;2024-01-27T10:45:03;3.17;;;2.45;;
29788;SDS011;64899;42.660;23.268;2024-01-27T10:47:31;3.38;;;2.10;;
29788;SDS011;64899;42.660;23.268;2024-01-27T10:49:57;5.28;;;3.47;;
29788;SDS011;64899;42.660;23.268;2024-01-27T10:52:28;4.20;;;2.78;;
29788;SDS011;64899;42.660;23.268;2024-01-27T10:54:58;3.08;;;2.30;;
29788;SDS011;64899;42.660;23.268;2024-01-27T10:57:25;3.95;;;2.85;;
29788;SDS011;64899;42.660;23.268;2024-01-27T10:59:52;3.40;;;2.53;;
29788;SDS011;64899;42.660;23.268;2024-01-27T11:02:18;3.95;;;2.60;;
29788;SDS011;64899;42.660;23.268;2024-01-27T11:04:44;2.55;;;2.00;;
29788;SDS011;64899;42.660;23.268;2024-01-27T11:07:10;3.30;;;2.30;;
29788;SDS011;64899;42.660;23.268;2024-01-27T11:09:36;3.25;;;2.60;;
29788;SDS011;64899;42.660;23.268;2024-01-27T11:12:02;3.28;;;2.83;;
29788;SDS011;64899;42.660;23.268;2024-01-27T11:14:28;4.22;;;2.42;;
29788;SDS011;64899;42.660;23.268;2024-01-27T11:16:55;3.03;;;2.08;;
29788;SDS011;64899;42.660;23.268;2024-01-27T11:19:21;5.57;;;2.53;;
29788;SDS011;64899;42.660;23.268;2024-01-27T11:21:47;2.50;;;2.00;;
29788;SDS011;64899;42.660;23.268;2024-01-27T11:24:16;3.05;;;2.60;;
29788;SDS011;64899;42.660;23.268;2024-01-27T11:26:42;4.50;;;2.95;;
29788;SDS011;64899;42.660;23.268;2024-01-27T11:29:08;3.00;;;2.60;;
29788;SDS011;64899;42.660;23.268;2024-01-27T11:31:54;3.72;;;3.10;;
29788;SDS011;64899;42.660;23.268;2024-01-27T11:34:20;3.47;;;2.78;;
29788;SDS011;64899;42.660;23.268;2024-01-27T11:36:46;4.65;;;3.15;;
29788;SDS011;64899;42.660;23.268;2024-01-27T11:39:28;3.35;;;2.72;;
29788;SDS011;64899;42.660;23.268;2024-01-27T11:42:07;3.50;;;2.90;;
29788;SDS011;64899;42.660;23.268;2024-01-27T11:44:36;6.22;;;3.05;;
29788;SDS011;64899;42.660;23.268;2024-01-27T11:47:02;5.10;;;2.85;;
29788;SDS011;64899;42.660;23.268;2024-01-27T11:49:28;3.97;;;2.72;;
29788;SDS011;64899;42.660;23.268;2024-01-27T11:51:54;3.60;;;2.97;;
29788;SDS011;64899;42.660;23.268;2024-01-27T11:54:20;3.28;;;2.53;;
29788;SDS011;64899;42.660;23.268;2024-01-27T11:56:45;3.20;;;2.90;;
29788;SDS011;64899;42.660;23.268;2024-01-27T11:59:11;5.03;;;2.95;;
29788;SDS011;64899;42.660;23.268;2024-01-27T12:01:36;3.17;;;2.80;;
29788;SDS011;64899;42.660;23.268;2024-01-27T12:04:03;4.70;;;3.15;;
29788;SDS011;64899;42.660;23.268;2024-01-27T12:06:29;4.65;;;3.00;;
29788;SDS011;64899;42.660;23.268;2024-01-27T12:08:55;5.50;;;2.95;;
29788;SDS011;64899;42.660;23.268;2024-01-27T12:11:22;4.97;;;3.15;;
29788;SDS011;64899;42.660;23.268;2024-01-27T12:13:51;4.40;;;3.40;;
29788;SDS011;64899;42.660;23.268;2024-01-27T12:16:18;4.97;;;3.40;;
29788;SDS011;64899;42.660;23.268;2024-01-27T12:18:46;3.25;;;2.95;;
29788;SDS011;64899;42.660;23.268;2024-01-27T12:21:12;4.47;;;3.35;;
29788;SDS011;64899;42.660;23.268;2024-01-27T12:23:49;6.85;;;2.92;;
29788;SDS011;64899;42.660;23.268;2024-01-27T12:26:28;7.53;;;2.78;;
29788;SDS011;64899;42.660;23.268;2024-01-27T12:28:54;5.13;;;3.22;;
29788;SDS011;64899;42.660;23.268;2024-01-27T12:31:20;2.95;;;2.35;;
29788;SDS011;64899;42.660;23.268;2024-01-27T12:33:48;3.70;;;2.17;;
29788;SDS011;64899;42.660;23.268;2024-01-27T12:36:18;2.15;;;1.77;;
29788;SDS011;64899;42.660;23.268;2024-01-27T12:39:03;2.97;;;1.98;;
29788;SDS011;64899;42.660;23.268;2024-01-27T12:41:29;2.10;;;1.90;;
29788;SDS011;64899;42.660;23.268;2024-01-27T12:43:57;2.58;;;2.00;;
29788;SDS011;64899;42.660;23.268;2024-01-27T12:46:23;3.13;;;1.70;;
29788;SDS011;64899;42.660;23.268;2024-01-27T12:48:48;2.63;;;1.90;;
29788;SDS011;64899;42.660;23.268;2024-01-27T12:51:14;3.85;;;2.38;;
29788;SDS011;64899;42.660;23.268;2024-01-27T12:53:39;3.90;;;2.17;;
29788;SDS011;64899;42.660;23.268;2024-01-27T12:56:09;4.57;;;2.30;;
29788;SDS011;64899;42.660;23.268;2024-01-27T12:58:38;2.65;;;1.80;;
29788;SDS011;64899;42.660;23.268;2024-01-27T13:01:05;3.30;;;2.13;;
29788;SDS011;64899;42.660;23.268;2024-01-27T13:03:30;3.63;;;2.40;;
29788;SDS011;64899;42.660;23.268;2024-01-27T13:05:56;5.40;;;2.22;;
29788;SDS011;64899;42.660;23.268;2024-01-27T13:08:21;3.22;;;2.45;;
29788;SDS011;64899;42.660;23.268;2024-01-27T13:10:47;1.92;;;1.70;;
29788;SDS011;64899;42.660;23.268;2024-01-27T13:13:13;4.50;;;2.50;;
29788;SDS011;64899;42.660;23.268;2024-01-27T13:15:38;3.13;;;2.30;;
29788;SDS011;64899;42.660;23.268;2024-01-27T13:18:04;7.95;;;2.40;;
29788;SDS011;64899;42.660;23.268;2024-01-27T13:20:29;3.45;;;2.13;;
29788;SDS011;64899;42.660;23.268;2024-01-27T13:22:55;4.25;;;2.40;;
29788;SDS011;64899;42.660;23.268;2024-01-27T13:25:20;4.85;;;2.45;;
29788;SDS011;64899;42.660;23.268;2024-01-27T13:27:46;3.28;;;2.53;;
29788;SDS011;64899;42.660;23.268;2024-01-27T13:30:11;4.20;;;2.00;;
29788;SDS011;64899;42.660;23.268;2024-01-27T13:32:38;3.50;;;2.03;;
29788;SDS011;64899;42.660;23.268;2024-01-27T13:35:03;3.65;;;2.65;;
29788;SDS011;64899;42.660;23.268;2024-01-27T13:37:29;6.00;;;3.42;;
29788;SDS011;64899;42.660;23.268;2024-01-27T13:39:58;4.32;;;2.60;;
29788;SDS011;64899;42.660;23.268;2024-01-27T13:42:24;2.78;;;1.95;;
29788;SDS011;64899;42.660;23.268;2024-01-27T13:44:50;3.03;;;2.35;;
29788;SDS011;64899;42.660;23.268;2024-01-27T13:47:15;4.28;;;2.22;;
29788;SDS011;64899;42.660;23.268;2024-01-27T13:49:41;3.72;;;2.15;;
29788;SDS011;64899;42.660;23.268;2024-01-27T13:52:06;3.50;;;2.35;;
29788;SDS011;64899;42.660;23.268;2024-01-27T13:54:32;3.72;;;2.33;;
29788;SDS011;64899;42.660;23.268;2024-01-27T13:56:59;4.43;;;2.50;;
29788;SDS011;64899;42.660;23.268;2024-01-27T13:59:25;2.08;;;1.88;;
29788;SDS011;64899;42.660;23.268;2024-01-27T14:01:50;3.75;;;2.40;;
29788;SDS011;64899;42.660;23.268;2024-01-27T14:04:18;2.95;;;2.20;;
29788;SDS011;64899;42.660;23.268;2024-01-27T14:06:43;3.40;;;2.67;;
29788;SDS011;64899;42.660;23.268;2024-01-27T14:09:09;3.60;;;2.38;;
29788;SDS011;64899;42.660;23.268;2024-01-27T14:11:34;4.57;;;2.55;;
29788;SDS011;64899;42.660;23.268;2024-01-27T14:13:59;3.03;;;2.13;;
29788;SDS011;64899;42.660;23.268;2024-01-27T14:16:25;6.13;;;2.88;;
29788;SDS011;64899;42.660;23.268;2024-01-27T14:18:51;8.80;;;2.45;;
29788;SDS011;64899;42.660;23.268;2024-01-27T14:21:16;4.55;;;1.73;;
29788;SDS011;64899;42.660;23.268;2024-01-27T14:23:41;3.67;;;1.77;;
29788;SDS011;64899;42.660;23.268;2024-01-27T14:26:07;5.82;;;2.47;;